Carnival Valor — H3VR — position and weather

sailwx.info

Track history (hours):
 
Tides and Currents Weather Stations Pressure Air Temp Water Temp Dewpoint Dewpoint Depression Visibility Wind Speed Wind Dir Waves Ship Positions

Carnival Valor

Last reported at 2017-Feb-23 00:33 UTC. Time now 2017-Feb-24 08:21 UTC.
Position N 20°31' W 087°00'.

Type: Ship. MMSI: 354298000.

Date/timePositionNaut miles runAvg speedWind from/ knotsBaromVisibWave heightAir tempDewpointWater temp
2017-Feb-23 00:33N 20°31' W 087°00'3 2.5
2017-Feb-22 23:33N 20°29' W 086°59'0 0.0
2017-Feb-22 22:32N 20°29' W 086°59'0 0.0
2017-Feb-22 21:32N 20°29' W 086°59'0 0.0
2017-Feb-22 20:31N 20°29' W 086°59'0 0.0
2017-Feb-22 19:31N 20°29' W 086°59'0 0.0
2017-Feb-22 18:30N 20°29' W 086°59'0 0.0
2017-Feb-22 17:33N 20°29' W 086°59'0 0.0
2017-Feb-22 16:32N 20°29' W 086°59'0 0.0
2017-Feb-22 15:32N 20°29' W 086°59'0 0.2
2017-Feb-22 14:34N 20°29' W 086°59'8 7.8
2017-Feb-22 13:34N 20°36' W 086°57'67416.8
2017-Feb-20 21:19N 29°19' W 094°48'0 0.0
2017-Feb-20 17:33N 29°19' W 094°48'0 0.0
2017-Feb-20 13:34N 29°19' W 094°48'5312.8
2017-Feb-20 09:23N 28°52' W 093°55'3217.4
2017-Feb-20 07:32N 28°33' W 093°25'59519.2
2017-Feb-19 00:33N 20°31' W 087°00'3 2.7
2017-Feb-18 23:29N 20°29' W 086°59'0 0.0
2017-Feb-18 22:32N 20°29' W 086°59'0 0.0
2017-Feb-18 21:29N 20°29' W 086°59'0 0.0
2017-Feb-18 20:31N 20°29' W 086°59'0 0.0
2017-Feb-18 19:31N 20°29' W 086°59'0 0.0
2017-Feb-18 18:33N 20°29' W 086°59'0 0.0
2017-Feb-18 17:33N 20°29' W 086°59'0 0.0
2017-Feb-18 16:32N 20°29' W 086°59'0 0.0
2017-Feb-18 15:32N 20°29' W 086°59'0 0.2
2017-Feb-18 14:33N 20°29' W 086°59'8 7.5
2017-Feb-18 13:33N 20°36' W 086°57'67517.3
2017-Feb-16 22:33N 29°20' W 094°47'1 0.2
2017-Feb-16 14:25N 29°19' W 094°48'0 0.3
2017-Feb-16 13:30N 29°19' W 094°48'67718.3
2017-Feb-15 00:33N 20°31' W 087°00'3 3.0
2017-Feb-14 23:32N 20°29' W 086°59'0 0.0
2017-Feb-14 22:32N 20°29' W 086°59'0 0.0
2017-Feb-14 21:32N 20°29' W 086°59'0 0.0
2017-Feb-14 20:31N 20°29' W 086°59'0 0.0
2017-Feb-14 19:33N 20°29' W 086°59'0 0.0
2017-Feb-14 18:33N 20°29' W 086°59'0 0.0
2017-Feb-14 17:32N 20°29' W 086°59'0 0.0
2017-Feb-14 16:32N 20°29' W 086°59'0 0.1
2017-Feb-14 15:33N 20°29' W 086°59'8 7.8
2017-Feb-14 14:34N 20°36' W 086°57'  
Track history (hours):
 
Tides and Currents Weather Stations Pressure Air Temp Water Temp Dewpoint Dewpoint Depression Visibility Wind Speed Wind Dir Waves Ship Positions

Carnival Valor

Last reported at 2017-Feb-23 00:33 UTC. Time now 2017-Feb-24 08:21 UTC.
Position N 20°31' W 087°00'.

Type: Ship. MMSI: 354298000.

Date/timePositionNaut miles runAvg speedWind from/ knotsBaromVisibWave heightAir tempDewpointWater temp
2017-Feb-23 00:33N 20°31' W 087°00'3 2.5
2017-Feb-22 23:33N 20°29' W 086°59'0 0.0
2017-Feb-22 22:32N 20°29' W 086°59'0 0.0
2017-Feb-22 21:32N 20°29' W 086°59'0 0.0
2017-Feb-22 20:31N 20°29' W 086°59'0 0.0
2017-Feb-22 19:31N 20°29' W 086°59'0 0.0
2017-Feb-22 18:30N 20°29' W 086°59'0 0.0
2017-Feb-22 17:33N 20°29' W 086°59'0 0.0
2017-Feb-22 16:32N 20°29' W 086°59'0 0.0
2017-Feb-22 15:32N 20°29' W 086°59'0 0.2
2017-Feb-22 14:34N 20°29' W 086°59'8 7.8
2017-Feb-22 13:34N 20°36' W 086°57'67416.8
2017-Feb-20 21:19N 29°19' W 094°48'0 0.0
2017-Feb-20 17:33N 29°19' W 094°48'0 0.0
2017-Feb-20 13:34N 29°19' W 094°48'5312.8
2017-Feb-20 09:23N 28°52' W 093°55'3217.4
2017-Feb-20 07:32N 28°33' W 093°25'59519.2
2017-Feb-19 00:33N 20°31' W 087°00'3 2.7
2017-Feb-18 23:29N 20°29' W 086°59'0 0.0
2017-Feb-18 22:32N 20°29' W 086°59'0 0.0
2017-Feb-18 21:29N 20°29' W 086°59'0 0.0
2017-Feb-18 20:31N 20°29' W 086°59'0 0.0
2017-Feb-18 19:31N 20°29' W 086°59'0 0.0
2017-Feb-18 18:33N 20°29' W 086°59'0 0.0
2017-Feb-18 17:33N 20°29' W 086°59'0 0.0
2017-Feb-18 16:32N 20°29' W 086°59'0 0.0
2017-Feb-18 15:32N 20°29' W 086°59'0 0.2
2017-Feb-18 14:33N 20°29' W 086°59'8 7.5
2017-Feb-18 13:33N 20°36' W 086°57'67517.3
2017-Feb-16 22:33N 29°20' W 094°47'1 0.2
2017-Feb-16 14:25N 29°19' W 094°48'0 0.3
2017-Feb-16 13:30N 29°19' W 094°48'67718.3
2017-Feb-15 00:33N 20°31' W 087°00'3 3.0
2017-Feb-14 23:32N 20°29' W 086°59'0 0.0
2017-Feb-14 22:32N 20°29' W 086°59'0 0.0
2017-Feb-14 21:32N 20°29' W 086°59'0 0.0
2017-Feb-14 20:31N 20°29' W 086°59'0 0.0
2017-Feb-14 19:33N 20°29' W 086°59'0 0.0
2017-Feb-14 18:33N 20°29' W 086°59'0 0.0
2017-Feb-14 17:32N 20°29' W 086°59'0 0.0
2017-Feb-14 16:32N 20°29' W 086°59'0 0.1
2017-Feb-14 15:33N 20°29' W 086°59'8 7.8
2017-Feb-14 14:34N 20°36' W 086°57'  

Dump ship's entire track history